createdAt,value
2018-07-21T00:00:20.220Z,100004.03
2018-07-21T00:01:27.048Z,100000.16
2018-07-21T00:02:32.844Z,100005.07
2018-07-21T00:03:38.845Z,100004.40
2018-07-21T00:04:44.988Z,100000.98
2018-07-21T00:05:52.351Z,100006.78
2018-07-21T00:06:58.097Z,100004.66
2018-07-21T00:08:04.112Z,100001.00
2018-07-21T00:09:09.504Z,99998.23
2018-07-21T00:10:16.829Z,99994.18
2018-07-21T00:11:23.956Z,99995.77
2018-07-21T00:12:30.955Z,100000.41
2018-07-21T00:13:37.122Z,99995.83
2018-07-21T00:14:43.425Z,100002.27
2018-07-21T00:15:49.075Z,100000.02
2018-07-21T00:16:55.137Z,99996.89
2018-07-21T00:18:01.560Z,99992.42
2018-07-21T00:19:07.544Z,99993.33
2018-07-21T00:20:13.749Z,99996.62
2018-07-21T00:21:19.859Z,99998.65
2018-07-21T00:22:26.003Z,99993.17
2018-07-21T00:23:32.155Z,99992.69
2018-07-21T00:24:38.562Z,99997.27
2018-07-21T00:25:44.657Z,99997.78
2018-07-21T00:26:50.820Z,99997.36
2018-07-21T00:27:56.895Z,99994.70
2018-07-21T00:29:02.932Z,99996.72
2018-07-21T00:30:09.045Z,99991.48
2018-07-21T00:31:15.004Z,99991.93
2018-07-21T00:32:21.510Z,99993.69
2018-07-21T00:33:27.505Z,99992.50
2018-07-21T00:34:33.633Z,99993.45
2018-07-21T00:35:39.408Z,99988.48
2018-07-21T00:36:45.448Z,99987.31
2018-07-21T00:37:51.166Z,99989.14
2018-07-21T00:38:56.906Z,99990.03
2018-07-21T00:40:03.313Z,99986.48
2018-07-21T00:41:09.557Z,99990.64
2018-07-21T00:42:16.065Z,99991.81
2018-07-21T00:43:22.188Z,99992.54
2018-07-21T00:44:28.304Z,99993.05
2018-07-21T00:45:34.420Z,99996.20
2018-07-21T00:46:40.531Z,99991.89
2018-07-21T00:47:47.641Z,99992.87
2018-07-21T00:48:54.783Z,99994.03
2018-07-21T00:50:00.800Z,99996.80
2018-07-21T00:51:06.288Z,99991.70
2018-07-21T00:52:12.424Z,99994.31
2018-07-21T00:53:18.531Z,99993.20
2018-07-21T00:54:24.676Z,99992.87
2018-07-21T00:55:30.820Z,99998.02
2018-07-21T00:56:36.904Z,100001.84
2018-07-21T00:57:43.262Z,99992.80
2018-07-21T00:58:49.448Z,99996.51
2018-07-21T00:59:55.520Z,99996.51
2018-07-21T01:01:01.845Z,99994.19
2018-07-21T01:02:07.649Z,99990.73
2018-07-21T01:03:13.683Z,99991.27
2018-07-21T01:04:19.761Z,99986.06
2018-07-21T01:05:25.862Z,99986.37
2018-07-21T01:06:31.658Z,99983.50
2018-07-21T01:07:37.703Z,99986.53
2018-07-21T01:08:43.836Z,99978.39
2018-07-21T01:09:49.952Z,99984.49
2018-07-21T01:10:56.094Z,99981.19
2018-07-21T01:12:02.433Z,99975.77
2018-07-21T01:13:08.496Z,99967.97
2018-07-21T01:14:14.621Z,99970.11
2018-07-21T01:15:20.380Z,99970.31
2018-07-21T01:16:26.133Z,99965.70
2018-07-21T01:17:32.175Z,99965.75
2018-07-21T01:18:38.277Z,99969.68
2018-07-21T01:19:44.445Z,99964.31
2018-07-21T01:20:50.268Z,99965.75
2018-07-21T01:21:56.276Z,99967.16
2018-07-21T01:23:02.572Z,99969.82
2018-07-21T01:24:08.508Z,99963.18
2018-07-21T01:25:14.925Z,99967.81
2018-07-21T01:26:21.089Z,99964.98
2018-07-21T01:27:27.231Z,99967.97
2018-07-21T01:28:32.998Z,99961.92
2018-07-21T01:29:39.013Z,99965.43
2018-07-21T01:30:45.338Z,99965.96
2018-07-21T01:31:51.425Z,99963.01
2018-07-21T01:32:57.761Z,99971.06
2018-07-21T01:34:04.370Z,99971.58
2018-07-21T01:35:10.666Z,99966.63
2018-07-21T01:36:16.761Z,99971.34
2018-07-21T01:37:22.553Z,99972.80
2018-07-21T01:38:28.564Z,99976.98
2018-07-21T01:39:34.671Z,99974.56
2018-07-21T01:40:40.426Z,99974.28
2018-07-21T01:41:47.026Z,99976.58
2018-07-21T01:42:53.401Z,99974.07
2018-07-21T01:43:59.418Z,99973.79
2018-07-21T01:45:05.169Z,99974.07
2018-07-21T01:46:11.367Z,99975.41
2018-07-21T01:47:17.467Z,99975.88
2018-07-21T01:48:23.594Z,99974.61
2018-07-21T01:49:29.753Z,99973.72
2018-07-21T01:50:35.856Z,99967.48
2018-07-21T01:51:42.096Z,99973.56
2018-07-21T01:52:47.769Z,99969.45
2018-07-21T01:53:53.765Z,99971.56
2018-07-21T01:54:59.971Z,99963.09
2018-07-21T01:56:05.726Z,99971.73
2018-07-21T01:57:11.816Z,99969.39
2018-07-21T01:58:17.933Z,99970.95
2018-07-21T01:59:24.070Z,99970.22
2018-07-21T02:00:30.941Z,99974.83
2018-07-21T02:01:37.143Z,99974.62
2018-07-21T02:02:43.401Z,99978.36
2018-07-21T02:03:49.920Z,99972.09
2018-07-21T02:04:56.125Z,99975.80
2018-07-21T02:06:02.465Z,99970.02
2018-07-21T02:07:08.210Z,99970.20
2018-07-21T02:08:14.221Z,99966.46
2018-07-21T02:09:20.317Z,99965.44
2018-07-21T02:10:26.407Z,99968.52
2018-07-21T02:11:32.507Z,99966.59
2018-07-21T02:12:38.692Z,99969.44
2018-07-21T02:13:44.942Z,99965.59
2018-07-21T02:14:51.355Z,99965.98
2018-07-21T02:15:57.660Z,99962.18
2018-07-21T02:17:04.108Z,99961.03
2018-07-21T02:18:10.523Z,99969.94
2018-07-21T02:19:16.621Z,99973.49
2018-07-21T02:20:22.884Z,99970.78
2018-07-21T02:21:29.039Z,99971.55
2018-07-21T02:22:35.134Z,99968.73
2018-07-21T02:23:41.547Z,99966.86
2018-07-21T02:24:47.852Z,99973.97
2018-07-21T02:25:53.956Z,99970.11
2018-07-21T02:27:00.055Z,99970.91
2018-07-21T02:28:06.212Z,99972.84
2018-07-21T02:29:12.385Z,99971.86
2018-07-21T02:30:18.157Z,99985.03
2018-07-21T02:31:24.339Z,99977.38
2018-07-21T02:32:30.420Z,99978.91
2018-07-21T02:33:37.239Z,99977.81
2018-07-21T02:34:43.394Z,99977.87
2018-07-21T02:35:49.536Z,99977.67
2018-07-21T02:36:56.372Z,99985.03
2018-07-21T02:38:02.571Z,99982.92
2018-07-21T02:39:08.217Z,99986.06
2018-07-21T02:40:14.299Z,99982.69
2018-07-21T02:41:20.385Z,99985.20
2018-07-21T02:42:26.436Z,99981.29
2018-07-21T02:43:33.338Z,99982.67
2018-07-21T02:44:39.425Z,99979.18
2018-07-21T02:45:45.761Z,99977.91
2018-07-21T02:46:52.033Z,99976.83
2018-07-21T02:47:58.385Z,99983.27
2018-07-21T02:49:04.492Z,99982.16
2018-07-21T02:50:10.263Z,99980.59
2018-07-21T02:51:16.285Z,99981.39
2018-07-21T02:52:22.343Z,99978.05
2018-07-21T02:53:28.717Z,99979.80
2018-07-21T02:54:34.797Z,99977.38
2018-07-21T02:55:40.894Z,99973.17
2018-07-21T02:56:46.978Z,99973.22
2018-07-21T02:57:53.243Z,99971.98
2018-07-21T02:58:59.257Z,99966.35
2018-07-21T03:00:04.749Z,99969.33
2018-07-21T03:01:10.420Z,99963.75
2018-07-21T03:02:16.082Z,99965.27
2018-07-21T03:03:22.157Z,99967.30
2018-07-21T03:04:28.217Z,99966.22
2018-07-21T03:05:34.265Z,99967.59
2018-07-21T03:06:40.343Z,99968.25
2018-07-21T03:07:46.477Z,99968.39
2018-07-21T03:08:52.578Z,99970.37
2018-07-21T03:09:59.160Z,99966.78
2018-07-21T03:11:05.411Z,99967.73
2018-07-21T03:12:11.172Z,99969.80
2018-07-21T03:13:17.912Z,99969.38
2018-07-21T03:14:24.200Z,99968.45
2018-07-21T03:15:30.522Z,99967.83
2018-07-21T03:16:37.174Z,99966.42
2018-07-21T03:17:43.253Z,99970.44
2018-07-21T03:18:49.594Z,99965.09
2018-07-21T03:19:55.704Z,99953.16
2018-07-21T03:21:01.989Z,99962.30
2018-07-21T03:22:07.976Z,99957.46
2018-07-21T03:23:14.007Z,99958.00
2018-07-21T03:24:20.346Z,99953.12
2018-07-21T03:25:26.416Z,99956.00
2018-07-21T03:26:32.549Z,99951.84
2018-07-21T03:27:38.276Z,99958.33
2018-07-21T03:28:44.357Z,99948.05
2018-07-21T03:29:51.529Z,99953.54
2018-07-21T03:30:57.948Z,99946.20
2018-07-21T03:32:04.241Z,99949.14
2018-07-21T03:33:10.089Z,99945.73
2018-07-21T03:34:16.242Z,99942.66
2018-07-21T03:35:22.330Z,99941.56
2018-07-21T03:36:28.400Z,99944.88
2018-07-21T03:37:34.423Z,99948.34
2018-07-21T03:38:40.708Z,99951.37
2018-07-21T03:39:46.848Z,99948.98
2018-07-21T03:40:52.954Z,99951.48
2018-07-21T03:41:59.058Z,99948.33
2018-07-21T03:43:05.083Z,99952.91
2018-07-21T03:44:11.620Z,99955.37
2018-07-21T03:45:17.985Z,99953.48
2018-07-21T03:46:24.122Z,99954.06
2018-07-21T03:47:30.304Z,99957.32
2018-07-21T03:48:36.418Z,99953.63
2018-07-21T03:49:43.184Z,99951.83
2018-07-21T03:50:49.436Z,99952.41
2018-07-21T03:51:55.554Z,99950.80
2018-07-21T03:53:01.648Z,99951.78
2018-07-21T03:54:07.494Z,99949.14
2018-07-21T03:55:14.332Z,99948.58
2018-07-21T03:56:20.952Z,99938.88
2018-07-21T03:57:27.256Z,99937.50
2018-07-21T03:58:33.460Z,99948.95
2018-07-21T03:59:39.565Z,99938.96
2018-07-21T04:00:45.701Z,99937.03
2018-07-21T04:01:51.885Z,99939.02
2018-07-21T04:02:57.984Z,99939.63
2018-07-21T04:04:03.736Z,99938.78
2018-07-21T04:05:09.777Z,99941.00
2018-07-21T04:06:16.024Z,99937.64
2018-07-21T04:07:22.180Z,99938.67
2018-07-21T04:08:28.313Z,99935.27
2018-07-21T04:09:34.426Z,99933.43
2018-07-21T04:10:40.862Z,99932.80
2018-07-21T04:11:48.677Z,99937.11
2018-07-21T04:12:55.816Z,99933.41
2018-07-21T04:14:03.062Z,99934.41
2018-07-21T04:15:09.904Z,99931.28
2018-07-21T04:16:16.695Z,99933.94
2018-07-21T04:17:24.158Z,99934.25
2018-07-21T04:18:32.106Z,99936.23
2018-07-21T04:19:38.753Z,99926.54
2018-07-21T04:20:46.021Z,99931.79
2018-07-21T04:21:52.373Z,99931.84
2018-07-21T04:22:58.427Z,99927.16
2018-07-21T04:24:04.302Z,99929.76
2018-07-21T04:25:10.673Z,99929.56
2018-07-21T04:26:16.417Z,99929.14
2018-07-21T04:27:22.602Z,99925.29
2018-07-21T04:28:28.709Z,99931.09
2018-07-21T04:29:38.034Z,99931.56
2018-07-21T04:30:44.160Z,99931.93
2018-07-21T04:31:50.384Z,99937.66
2018-07-21T04:32:57.637Z,99936.85
2018-07-21T04:34:03.609Z,99933.95
2018-07-21T04:35:09.732Z,99933.58
2018-07-21T04:36:15.804Z,99932.11
2018-07-21T04:37:22.055Z,99928.56
2018-07-21T04:38:27.801Z,99935.51
2018-07-21T04:39:33.870Z,99931.74
2018-07-21T04:40:40.132Z,99930.36
2018-07-21T04:41:46.254Z,99930.63
2018-07-21T04:42:51.991Z,99929.05
2018-07-21T04:43:58.064Z,99923.94
2018-07-21T04:45:04.002Z,99925.02
2018-07-21T04:46:10.256Z,99922.59
2018-07-21T04:47:16.404Z,99930.02
2018-07-21T04:48:22.476Z,99927.35
2018-07-21T04:49:28.648Z,99927.47
2018-07-21T04:50:34.716Z,99928.17
2018-07-21T04:51:40.889Z,99923.83
2018-07-21T04:53:51.583Z,99917.54
2018-07-21T04:54:57.820Z,99921.05
2018-07-21T04:56:03.544Z,99921.81
2018-07-21T04:57:11.084Z,99913.77
2018-07-21T04:58:17.359Z,99921.31
2018-07-21T04:59:29.422Z,99916.03
2018-07-21T05:00:39.106Z,99916.40
2018-07-21T05:01:47.738Z,99919.88
2018-07-21T05:02:55.455Z,99921.88
2018-07-21T05:04:03.697Z,99918.18
2018-07-21T05:05:11.008Z,99922.53
2018-07-21T05:06:17.949Z,99916.84
2018-07-21T05:07:27.143Z,99918.18
2018-07-21T05:08:34.884Z,99916.17
2018-07-21T05:09:42.512Z,99915.60
2018-07-21T05:10:50.200Z,99917.74
2018-07-21T05:11:57.667Z,99917.43
2018-07-21T05:13:04.872Z,99917.17
2018-07-21T05:14:12.052Z,99919.83
2018-07-21T05:15:19.592Z,99920.67
2018-07-21T05:16:27.608Z,99927.14
2018-07-21T05:17:35.926Z,99924.17
2018-07-21T05:18:43.328Z,99930.72
2018-07-21T05:19:50.880Z,99922.95
2018-07-21T05:20:59.064Z,99928.28
2018-07-21T05:22:07.682Z,99932.75
2018-07-21T05:23:16.436Z,99928.61
2018-07-21T05:24:23.562Z,99929.52
2018-07-21T05:25:30.856Z,99922.64
2018-07-21T05:26:38.919Z,99921.95
2018-07-21T05:27:46.344Z,99921.56
2018-07-21T05:28:52.542Z,99916.80
2018-07-21T05:29:59.472Z,99919.34
2018-07-21T05:31:06.311Z,99925.37
2018-07-21T05:32:13.016Z,99920.14
2018-07-21T05:33:19.944Z,99920.41
2018-07-21T05:34:27.712Z,99916.54
2018-07-21T05:35:34.436Z,99921.44
2018-07-21T05:36:40.564Z,99920.92
2018-07-21T05:37:47.921Z,99918.88
2018-07-21T05:38:56.411Z,99922.59
2018-07-21T05:40:03.647Z,99916.99
2018-07-21T05:41:10.058Z,99911.78
2018-07-21T05:42:16.830Z,99910.44
2018-07-21T05:43:23.764Z,99912.70
2018-07-21T05:44:31.710Z,99909.91
2018-07-21T05:45:38.409Z,99908.02
2018-07-21T05:46:45.779Z,99909.19
2018-07-21T05:47:52.641Z,99909.11
2018-07-21T05:48:59.359Z,99903.34
2018-07-21T05:50:05.711Z,99905.79
2018-07-21T05:51:11.995Z,99903.84
2018-07-21T05:52:19.401Z,99905.92
2018-07-21T05:53:27.425Z,99902.48
2018-07-21T05:54:33.791Z,99907.19
2018-07-21T05:55:40.487Z,99905.48
2018-07-21T05:56:48.072Z,99904.11
2018-07-21T05:57:54.871Z,99908.55
2018-07-21T05:59:01.040Z,99903.73
2018-07-21T06:00:06.485Z,99903.89
2018-07-21T06:01:18.104Z,99906.34
2018-07-21T06:02:24.956Z,99901.72
2018-07-21T06:03:31.028Z,99901.58
2018-07-21T06:04:39.114Z,99898.33
2018-07-21T06:05:46.829Z,99897.90
2018-07-21T06:06:53.051Z,99901.44
2018-07-21T06:08:00.301Z,99904.67
2018-07-21T06:09:06.555Z,99911.10
2018-07-21T06:10:13.129Z,99905.94
2018-07-21T06:11:20.197Z,99908.69
2018-07-21T06:12:26.629Z,99908.99
2018-07-21T06:13:33.065Z,99915.23
2018-07-21T06:14:39.788Z,99916.74
2018-07-21T06:15:45.995Z,99915.98
2018-07-21T06:16:53.070Z,99914.84
2018-07-21T06:18:00.057Z,99913.45
2018-07-21T06:19:07.084Z,99911.35
2018-07-21T06:20:14.726Z,99911.59
2018-07-21T06:21:21.930Z,99910.69
2018-07-21T06:22:28.006Z,99909.05
2018-07-21T06:23:34.918Z,99916.39
2018-07-21T06:24:41.353Z,99914.38
2018-07-21T06:25:47.725Z,99914.16
2018-07-21T06:26:54.726Z,99918.00
2018-07-21T06:28:00.976Z,99911.92
2018-07-21T06:29:07.984Z,99918.61
2018-07-21T06:30:13.965Z,99924.31
2018-07-21T06:31:21.426Z,99922.55
2018-07-21T06:32:28.673Z,99918.36
2018-07-21T06:33:35.688Z,99925.72
2018-07-21T06:34:42.230Z,99922.13
2018-07-21T06:35:49.912Z,99923.76
2018-07-21T06:36:56.876Z,99926.72
2018-07-21T06:38:03.159Z,99928.78
2018-07-21T06:39:09.626Z,99929.11
2018-07-21T06:40:16.682Z,99928.97
2018-07-21T06:41:23.184Z,99931.44
2018-07-21T06:42:30.178Z,99936.60
2018-07-21T06:43:36.417Z,99935.59
2018-07-21T06:44:43.028Z,99937.06
2018-07-21T06:45:50.886Z,99942.17
2018-07-21T06:46:57.582Z,99947.75
2018-07-21T06:48:04.092Z,99941.71
2018-07-21T06:49:12.685Z,99940.11
2018-07-21T06:50:18.902Z,99943.08
2018-07-21T06:51:26.128Z,99943.91
2018-07-21T06:52:33.462Z,99937.89
2018-07-21T06:53:40.610Z,99941.20
2018-07-21T06:54:48.632Z,99945.50
2018-07-21T06:55:55.163Z,99945.67
2018-07-21T06:57:01.585Z,99947.67
2018-07-21T06:58:08.396Z,99946.95
2018-07-21T06:59:15.319Z,99945.83
2018-07-21T07:00:22.623Z,99952.73
2018-07-21T07:01:29.517Z,99948.52
2018-07-21T07:02:37.378Z,99948.88
2018-07-21T07:03:44.552Z,99955.26
2018-07-21T07:04:50.687Z,99949.11
2018-07-21T07:05:56.829Z,99950.47
2018-07-21T07:07:03.684Z,99948.41
2018-07-21T07:08:10.583Z,99952.48
2018-07-21T07:09:18.795Z,99948.26
2018-07-21T07:10:25.453Z,99946.91
2018-07-21T07:11:31.789Z,99947.63
2018-07-21T07:12:38.288Z,99948.83
2018-07-21T07:13:45.244Z,99945.59
2018-07-21T07:14:51.647Z,99947.20
2018-07-21T07:15:58.164Z,99941.69
2018-07-21T07:17:04.779Z,99951.97
2018-07-21T07:18:11.429Z,99950.92
2018-07-21T07:19:18.735Z,99946.89
2018-07-21T07:20:25.226Z,99944.76
2018-07-21T07:21:30.966Z,99947.36
2018-07-21T07:22:37.632Z,99943.25
2018-07-21T07:23:43.956Z,99938.47
2018-07-21T07:24:51.121Z,99945.77
2018-07-21T07:25:57.781Z,99940.39
2018-07-21T07:27:05.398Z,99936.88
2018-07-21T07:28:13.176Z,99945.44
2018-07-21T07:29:20.036Z,99943.43
2018-07-21T07:30:26.914Z,99943.77
2018-07-21T07:31:33.491Z,99939.31
2018-07-21T07:32:39.848Z,99941.00
2018-07-21T07:33:46.053Z,99941.39
2018-07-21T07:34:52.196Z,99934.66
2018-07-21T07:35:58.310Z,99934.39
2018-07-21T07:37:03.784Z,99932.09
2018-07-21T07:38:10.449Z,99933.52
2018-07-21T07:39:16.799Z,99932.70
2018-07-21T07:40:22.944Z,99936.91
2018-07-21T07:41:29.221Z,99936.31
2018-07-21T07:42:35.383Z,99932.23
2018-07-21T07:43:41.432Z,99936.73
2018-07-21T07:44:47.565Z,99929.76
2018-07-21T07:45:53.880Z,99930.33
2018-07-21T07:46:59.873Z,99927.23
2018-07-21T07:48:05.663Z,99931.44
2018-07-21T07:49:11.670Z,99931.20
2018-07-21T07:50:17.931Z,99929.06
2018-07-21T07:51:24.094Z,99930.44
2018-07-21T07:52:29.872Z,99926.23
2018-07-21T07:53:35.957Z,99932.74
2018-07-21T07:54:41.840Z,99932.59
2018-07-21T07:55:47.752Z,99937.64
2018-07-21T07:56:53.515Z,99934.34
2018-07-21T07:57:59.345Z,99933.70
2018-07-21T07:59:05.222Z,99932.37
2018-07-21T08:00:11.488Z,99932.92
2018-07-21T08:01:17.354Z,99930.48
2018-07-21T08:02:23.076Z,99927.93
2018-07-21T08:03:28.928Z,99939.06
2018-07-21T08:04:35.040Z,99932.45
2018-07-21T08:05:40.877Z,99932.23
2018-07-21T08:06:46.709Z,99931.66
2018-07-21T08:07:52.867Z,99929.75
2018-07-21T08:08:58.951Z,99933.13
2018-07-21T08:10:04.060Z,99939.55
2018-07-21T08:11:09.850Z,99932.48
2018-07-21T08:12:15.695Z,99935.30
2018-07-21T08:13:21.552Z,99937.48
2018-07-21T08:14:27.053Z,99939.09
2018-07-21T08:15:32.736Z,99938.05
2018-07-21T08:16:38.211Z,99945.19
2018-07-21T08:17:44.334Z,99941.23
2018-07-21T08:18:50.556Z,99936.10
2018-07-21T08:19:56.561Z,99938.94
2018-07-21T08:21:02.694Z,99939.89
2018-07-21T08:22:08.754Z,99932.95
2018-07-21T08:23:14.606Z,99934.88
2018-07-21T08:24:20.431Z,99935.97
2018-07-21T08:25:26.268Z,99937.75
2018-07-21T08:26:32.004Z,99931.45
2018-07-21T08:27:37.815Z,99933.39
2018-07-21T08:28:43.680Z,99938.27
2018-07-21T08:29:49.578Z,99937.14
2018-07-21T08:30:55.383Z,99934.65
2018-07-21T08:32:01.176Z,99936.75
2018-07-21T08:33:06.744Z,99936.20
2018-07-21T08:34:12.480Z,99943.62
2018-07-21T08:35:19.111Z,99935.89
2018-07-21T08:36:25.124Z,99935.27
2018-07-21T08:37:31.037Z,99934.59
2018-07-21T08:38:36.935Z,99935.66
2018-07-21T08:39:42.678Z,99938.97
2018-07-21T08:40:48.535Z,99937.90
2018-07-21T08:41:53.948Z,99936.34
2018-07-21T08:42:59.716Z,99933.13
2018-07-21T08:44:05.429Z,99931.45
2018-07-21T08:45:11.194Z,99935.13
2018-07-21T08:46:17.557Z,99932.45
2018-07-21T08:47:23.384Z,99932.06
2018-07-21T08:48:29.244Z,99925.80
2018-07-21T08:49:35.108Z,99934.94
2018-07-21T08:50:40.952Z,99935.48
2018-07-21T08:51:46.821Z,99935.24
2018-07-21T08:52:52.681Z,99936.48
2018-07-21T08:53:58.558Z,99936.64
2018-07-21T08:55:04.060Z,99931.84
2018-07-21T08:56:10.969Z,99937.98
2018-07-21T08:57:17.598Z,99937.16
2018-07-21T08:58:23.434Z,99931.06
2018-07-21T08:59:29.259Z,99932.87
2018-07-21T09:00:35.055Z,99931.89
2018-07-21T09:01:41.321Z,99927.59
2018-07-21T09:02:47.173Z,99932.45
2018-07-21T09:03:52.996Z,99927.85
2018-07-21T09:04:58.771Z,99927.65
2018-07-21T09:06:04.605Z,99931.00
2018-07-21T09:07:10.412Z,99924.14
2018-07-21T09:08:16.257Z,99928.00
2018-07-21T09:09:22.078Z,99925.92
2018-07-21T09:10:27.876Z,99926.75
2018-07-21T09:11:33.723Z,99925.14
2018-07-21T09:12:39.592Z,99927.96
2018-07-21T09:13:45.310Z,99923.33
2018-07-21T09:14:51.139Z,99919.28
2018-07-21T09:15:57.186Z,99920.55
2018-07-21T09:17:03.090Z,99926.39
2018-07-21T09:18:08.918Z,99913.69
2018-07-21T09:19:14.624Z,99917.91
2018-07-21T09:20:20.352Z,99920.86
2018-07-21T09:21:26.236Z,99917.91
2018-07-21T09:22:32.188Z,99922.16
2018-07-21T09:23:38.079Z,99925.66
2018-07-21T09:24:43.893Z,99925.45
2018-07-21T09:25:49.693Z,99921.83
2018-07-21T09:26:55.544Z,99921.75
2018-07-21T09:28:01.519Z,99929.24
2018-07-21T09:29:06.992Z,99926.84
2018-07-21T09:30:12.692Z,99926.50
2018-07-21T09:31:19.119Z,99923.69
2018-07-21T09:32:24.908Z,99925.95
2018-07-21T09:33:31.867Z,99925.11
2018-07-21T09:34:37.643Z,99923.44
2018-07-21T09:35:43.477Z,99921.73
2018-07-21T09:36:49.370Z,99927.48
2018-07-21T09:37:55.236Z,99925.28
2018-07-21T09:39:01.080Z,99925.41
2018-07-21T09:40:06.729Z,99928.65
2018-07-21T09:41:12.739Z,99929.66
2018-07-21T09:42:18.547Z,99932.53
2018-07-21T09:43:24.382Z,99926.72
2018-07-21T09:44:30.148Z,99925.95
2018-07-21T09:45:36.034Z,99929.11
2018-07-21T09:46:41.761Z,99929.51
2018-07-21T09:47:47.549Z,99927.96
2018-07-21T09:48:53.382Z,99933.02
2018-07-21T09:49:59.240Z,99934.91
2018-07-21T09:51:05.048Z,99933.55
2018-07-21T09:52:10.879Z,99937.16
2018-07-21T09:53:18.120Z,99933.23
2018-07-21T09:54:24.216Z,99929.89
2018-07-21T09:55:30.024Z,99931.49
2018-07-21T09:56:36.052Z,99935.06
2018-07-21T09:57:42.013Z,99931.89
2018-07-21T09:58:47.844Z,99933.22
2018-07-21T09:59:53.672Z,99927.66
2018-07-21T10:00:59.282Z,99929.00
2018-07-21T10:02:05.123Z,99927.25
2018-07-21T10:03:11.110Z,99924.67
2018-07-21T10:04:16.939Z,99928.83
2018-07-21T10:05:22.820Z,99919.61
2018-07-21T10:06:28.639Z,99927.59
2018-07-21T10:07:34.452Z,99916.27
2018-07-21T10:08:40.815Z,99928.56
2018-07-21T10:09:46.224Z,99927.22
2018-07-21T10:10:52.718Z,99924.77
2018-07-21T10:11:58.532Z,99925.23
2018-07-21T10:13:04.608Z,99922.97
2018-07-21T10:14:11.047Z,99926.45
2018-07-21T10:15:16.854Z,99927.14
2018-07-21T10:16:22.664Z,99927.72
2018-07-21T10:17:28.473Z,99926.98
2018-07-21T10:18:34.258Z,99929.15
2018-07-21T10:19:40.096Z,99925.23
2018-07-21T10:20:45.527Z,99925.31
2018-07-21T10:21:50.958Z,99924.55
2018-07-21T10:22:56.853Z,99918.06
2018-07-21T10:24:02.440Z,99924.25
2018-07-21T10:25:07.671Z,99920.09
2018-07-21T10:27:47.304Z,99914.34
2018-07-21T10:28:59.500Z,99920.66
2018-07-21T10:30:05.383Z,99921.89
2018-07-21T10:31:11.340Z,99924.91
2018-07-21T10:32:17.123Z,99918.77
2018-07-21T10:33:23.020Z,99920.28
2018-07-21T10:34:28.954Z,99913.77
2018-07-21T10:35:34.772Z,99915.14
2018-07-21T10:36:40.592Z,99914.61
2018-07-21T10:37:46.424Z,99919.08
2018-07-21T10:38:52.228Z,99917.27
2018-07-21T10:39:57.748Z,99917.23
2018-07-21T10:41:03.541Z,99924.02
2018-07-21T10:42:09.468Z,99920.28
2018-07-21T10:43:15.124Z,99921.72
2018-07-21T10:44:20.971Z,99913.81
2018-07-21T10:45:27.003Z,99913.20
2018-07-21T10:46:32.911Z,99916.02
2018-07-21T10:47:38.731Z,99913.17
2018-07-21T10:48:44.536Z,99907.81
2018-07-21T10:49:50.457Z,99911.89
2018-07-21T10:50:56.347Z,99910.75
2018-07-21T10:52:02.164Z,99913.91
2018-07-21T10:53:07.940Z,99908.77
2018-07-21T10:54:13.772Z,99906.56
2018-07-21T10:55:19.643Z,99910.41
2018-07-21T10:56:25.474Z,99903.05
2018-07-21T10:57:31.280Z,99908.89
2018-07-21T10:58:37.036Z,99905.73
2018-07-21T10:59:42.880Z,99915.59
2018-07-21T11:00:49.712Z,99900.56
2018-07-21T11:01:55.590Z,99903.56
2018-07-21T11:03:01.371Z,99898.49
2018-07-21T11:04:07.172Z,99904.03
2018-07-21T11:05:12.966Z,99895.36
2018-07-21T11:06:18.809Z,99894.61
2018-07-21T11:07:24.725Z,99902.30
2018-07-21T11:08:30.589Z,99899.03
2018-07-21T11:09:36.404Z,99890.45
2018-07-21T11:10:42.185Z,99887.95
2018-07-21T11:11:48.029Z,99890.16
2018-07-21T11:12:53.884Z,99892.48
2018-07-21T11:13:59.728Z,99891.79
2018-07-21T11:15:05.333Z,99890.74
2018-07-21T11:16:11.377Z,99898.42
2018-07-21T11:17:17.179Z,99899.19
2018-07-21T11:18:22.982Z,99890.22
2018-07-21T11:19:29.036Z,99885.45
2018-07-21T11:20:34.927Z,99890.62
2018-07-21T11:21:41.917Z,99894.35
2018-07-21T11:22:47.605Z,99895.21
2018-07-21T11:23:53.508Z,99893.23
2018-07-21T11:24:59.360Z,99890.52
2018-07-21T11:26:05.225Z,99891.05
2018-07-21T11:27:11.041Z,99891.61
2018-07-21T11:28:16.498Z,99892.20
2018-07-21T11:29:21.905Z,99891.66
2018-07-21T11:30:27.645Z,99891.67
2018-07-21T11:31:33.547Z,99883.11
2018-07-21T11:32:39.317Z,99886.57
2018-07-21T11:33:45.153Z,99893.87
2018-07-21T11:34:51.057Z,99894.27
2018-07-21T11:35:57.017Z,99886.59
2018-07-21T11:37:03.601Z,99892.50
2018-07-21T11:38:09.476Z,99891.95
2018-07-21T11:39:15.336Z,99891.84
2018-07-21T11:40:21.172Z,99892.10
2018-07-21T11:41:26.880Z,99896.35
2018-07-21T11:42:33.107Z,99894.37
2018-07-21T11:43:38.654Z,99896.55
2018-07-21T11:44:44.367Z,99895.95
2018-07-21T11:45:50.143Z,99894.88
2018-07-21T11:46:55.974Z,99893.11
2018-07-21T11:48:01.757Z,99889.77
2018-07-21T11:49:07.552Z,99889.42
2018-07-21T11:50:13.929Z,99893.08
2018-07-21T11:51:19.748Z,99888.70
2018-07-21T11:52:25.594Z,99888.61
2018-07-21T11:53:31.360Z,99893.82
2018-07-21T11:54:37.170Z,99893.64
2018-07-21T11:55:43.189Z,99883.41
2018-07-21T11:56:49.467Z,99893.81
2018-07-21T11:57:56.033Z,99886.49
2018-07-21T11:59:01.947Z,99892.35
2018-07-21T12:00:08.256Z,99896.38
2018-07-21T12:01:14.153Z,99899.03
2018-07-21T12:02:19.916Z,99893.36
2018-07-21T12:03:25.750Z,99895.34
2018-07-21T12:04:31.287Z,99900.75
2018-07-21T12:05:37.147Z,99900.90
2018-07-21T12:06:43.062Z,99893.87
2018-07-21T12:07:50.834Z,99900.23
2018-07-21T12:08:57.490Z,99894.25
2018-07-21T12:10:03.421Z,99899.72
2018-07-21T12:11:08.760Z,99896.52
2018-07-21T12:12:14.480Z,99895.75
2018-07-21T12:13:20.359Z,99906.67
2018-07-21T12:14:26.400Z,99907.50
2018-07-21T12:15:32.324Z,99896.42
2018-07-21T12:16:38.124Z,99896.89
2018-07-21T12:17:44.097Z,99900.55
2018-07-21T12:18:50.694Z,99895.16
2018-07-21T12:19:56.727Z,99902.33
2018-07-21T12:21:02.447Z,99891.11
2018-07-21T12:22:08.369Z,99892.98
2018-07-21T12:23:14.169Z,99898.62
2018-07-21T12:24:20.061Z,99893.61
2018-07-21T12:25:26.000Z,99895.20
2018-07-21T12:26:31.879Z,99889.88
2018-07-21T12:27:37.950Z,99895.28
2018-07-21T12:28:43.940Z,99897.41
2018-07-21T12:29:49.750Z,99894.53
2018-07-21T12:30:55.570Z,99898.78
2018-07-21T12:32:01.001Z,99894.70
2018-07-21T12:33:06.780Z,99893.68
2018-07-21T12:34:12.569Z,99893.95
2018-07-21T12:35:18.571Z,99897.92
2018-07-21T12:36:24.295Z,99899.09
2018-07-21T12:37:30.118Z,99898.44
2018-07-21T12:38:36.000Z,99900.81
2018-07-21T12:39:41.844Z,99895.59
2018-07-21T12:40:47.571Z,99894.25
2018-07-21T12:41:53.344Z,99901.48
2018-07-21T12:42:59.146Z,99894.45
2018-07-21T12:44:04.640Z,99894.80
2018-07-21T12:45:10.333Z,99890.70
2018-07-21T12:46:16.150Z,99892.30
2018-07-21T12:47:22.211Z,99897.52
2018-07-21T12:48:28.089Z,99898.27
2018-07-21T12:49:33.949Z,99899.84
2018-07-21T12:50:39.775Z,99899.39
2018-07-21T12:51:45.532Z,99897.73
2018-07-21T12:52:51.428Z,99901.55
2018-07-21T12:53:57.244Z,99901.20
2018-07-21T12:55:03.930Z,99900.31
2018-07-21T12:56:10.044Z,99903.05
2018-07-21T12:57:15.874Z,99904.23
2018-07-21T12:58:22.266Z,99907.98
2018-07-21T12:59:28.099Z,99902.91
2018-07-21T13:00:34.007Z,99905.08